createdAt,value
2019-05-29T00:00:51.766Z,0.00
2019-05-29T00:01:51.433Z,0.00
2019-05-29T00:02:51.407Z,4.00
2019-05-29T00:03:51.468Z,4.00
2019-05-29T00:04:51.391Z,4.00
2019-05-29T00:05:51.632Z,4.00
2019-05-29T00:06:51.381Z,4.00
2019-05-29T00:07:51.364Z,4.00
2019-05-29T00:08:51.649Z,4.00
2019-05-29T00:09:51.401Z,0.00
2019-05-29T00:10:51.324Z,0.00
2019-05-29T00:11:51.614Z,4.00
2019-05-29T00:12:51.309Z,4.00
2019-05-29T00:13:51.289Z,4.00
2019-05-29T00:15:04.369Z,4.00
2019-05-29T00:16:51.284Z,4.00
2019-05-29T00:17:51.310Z,4.00
2019-05-29T00:18:51.243Z,4.00
2019-05-29T00:19:51.229Z,8.00
2019-05-29T00:20:51.220Z,4.00
2019-05-29T00:21:51.203Z,8.00
2019-05-29T00:22:51.549Z,8.00
2019-05-29T00:23:51.492Z,12.00
2019-05-29T00:24:51.180Z,8.00
2019-05-29T00:25:51.166Z,12.00
2019-05-29T00:26:51.443Z,12.00
2019-05-29T00:27:51.160Z,12.00
2019-05-29T00:28:51.132Z,8.00
2019-05-29T00:29:51.522Z,8.00
2019-05-29T00:30:51.114Z,12.00
2019-05-29T00:31:51.136Z,12.00
2019-05-29T00:33:51.095Z,12.00
2019-05-29T00:34:51.073Z,12.00
2019-05-29T00:35:51.346Z,12.00
2019-05-29T00:36:51.050Z,12.00
2019-05-29T00:37:51.080Z,16.00
2019-05-29T00:38:51.324Z,16.00
2019-05-29T00:39:51.020Z,20.00
2019-05-29T00:40:51.002Z,16.00
2019-05-29T00:41:51.312Z,20.00
2019-05-29T00:42:51.034Z,16.00
2019-05-29T00:43:50.986Z,20.00
2019-05-29T00:44:51.246Z,24.00
2019-05-29T00:47:07.360Z,24.00
2019-05-29T00:48:06.063Z,28.00
2019-05-29T00:49:06.346Z,32.00
2019-05-29T00:50:06.332Z,32.00
2019-05-29T00:51:06.029Z,32.00
2019-05-29T00:52:06.022Z,36.00
2019-05-29T00:53:06.241Z,40.00
2019-05-29T00:54:06.041Z,40.00
2019-05-29T00:55:05.989Z,44.00
2019-05-29T00:56:06.226Z,44.00
2019-05-29T00:57:05.963Z,48.00
2019-05-29T00:58:05.952Z,48.00
2019-05-29T00:59:06.165Z,52.00
2019-05-29T01:00:05.945Z,60.00
2019-05-29T01:01:05.923Z,64.00
2019-05-29T01:02:06.233Z,64.00
2019-05-29T01:03:05.907Z,64.00
2019-05-29T01:04:05.893Z,56.00
2019-05-29T01:05:06.253Z,56.00
2019-05-29T01:06:05.871Z,60.00
2019-05-29T01:07:05.854Z,68.00
2019-05-29T01:08:06.263Z,72.00
2019-05-29T01:09:05.840Z,76.00
2019-05-29T01:10:05.863Z,80.00
2019-05-29T01:11:06.423Z,80.00
2019-05-29T01:12:05.806Z,76.00
2019-05-29T01:13:06.102Z,72.00
2019-05-29T01:14:05.787Z,68.00
2019-05-29T01:15:05.769Z,68.00
2019-05-29T01:16:06.113Z,76.00
2019-05-29T01:17:19.736Z,84.00
2019-05-29T01:18:06.060Z,84.00
2019-05-29T01:19:05.735Z,96.00
2019-05-29T01:20:05.720Z,92.00
2019-05-29T01:21:06.052Z,100.00
2019-05-29T01:22:05.707Z,112.00
2019-05-29T01:23:05.690Z,128.00
2019-05-29T01:24:05.996Z,136.00
2019-05-29T01:25:05.668Z,132.00
2019-05-29T01:26:05.689Z,120.00
2019-05-29T01:27:05.977Z,128.00
2019-05-29T01:28:05.626Z,140.00
2019-05-29T01:29:05.621Z,140.00
2019-05-29T01:30:05.974Z,156.00
2019-05-29T01:31:05.596Z,172.00
2019-05-29T01:32:05.601Z,184.00
2019-05-29T01:33:05.859Z,188.00
2019-05-29T01:34:05.573Z,172.00
2019-05-29T01:35:05.560Z,148.00
2019-05-29T01:36:05.886Z,144.00
2019-05-29T01:37:05.544Z,152.00
2019-05-29T01:38:05.520Z,148.00
2019-05-29T01:39:05.813Z,156.00
2019-05-29T01:40:19.347Z,152.00
2019-05-29T01:41:05.493Z,140.00
2019-05-29T01:42:06.226Z,128.00
2019-05-29T01:43:05.481Z,124.00
2019-05-29T01:44:06.246Z,132.00
2019-05-29T01:45:08.096Z,144.00
2019-05-29T01:46:05.435Z,152.00
2019-05-29T01:47:05.424Z,204.00
2019-05-29T01:48:17.381Z,192.00
2019-05-29T01:49:05.730Z,168.00
2019-05-29T01:50:05.391Z,216.00
2019-05-29T01:51:05.380Z,252.00
2019-05-29T01:52:05.376Z,276.00
2019-05-29T01:53:05.367Z,272.00
2019-05-29T01:54:05.679Z,272.00
2019-05-29T01:55:05.336Z,312.00
2019-05-29T01:56:05.327Z,336.00
2019-05-29T01:57:05.622Z,320.00
2019-05-29T01:58:05.314Z,276.00
2019-05-29T01:59:05.305Z,264.00
2019-05-29T02:00:05.659Z,268.00
2019-05-29T02:01:05.273Z,316.00
2019-05-29T02:02:05.261Z,372.00
2019-05-29T02:03:05.598Z,400.00
2019-05-29T02:04:05.246Z,428.00
2019-05-29T02:05:05.228Z,420.00
2019-05-29T02:06:05.518Z,412.00
2019-05-29T02:07:05.209Z,400.00
2019-05-29T02:08:05.208Z,468.00
2019-05-29T02:09:05.198Z,508.00
2019-05-29T02:10:05.171Z,560.00
2019-05-29T02:11:05.458Z,556.00
2019-05-29T02:12:05.155Z,608.00
2019-05-29T02:13:05.147Z,648.00
2019-05-29T02:14:05.455Z,700.00
2019-05-29T02:15:05.127Z,712.00
2019-05-29T02:16:05.109Z,672.00
2019-05-29T02:17:05.479Z,664.00
2019-05-29T02:18:05.096Z,692.00
2019-05-29T02:19:17.837Z,720.00
2019-05-29T02:20:05.396Z,744.00
2019-05-29T02:21:05.056Z,784.00
2019-05-29T02:22:05.045Z,816.00
2019-05-29T02:23:05.334Z,856.00
2019-05-29T02:24:05.040Z,784.00
2019-05-29T02:25:05.026Z,808.00
2019-05-29T02:26:05.331Z,932.00
2019-05-29T02:27:04.993Z,972.00
2019-05-29T02:28:04.980Z,860.00
2019-05-29T02:29:05.302Z,808.00
2019-05-29T02:30:05.004Z,816.00
2019-05-29T02:31:04.954Z,848.00
2019-05-29T02:32:05.290Z,856.00
2019-05-29T02:33:04.931Z,928.00
2019-05-29T02:34:07.360Z,1044.00
2019-05-29T02:35:05.275Z,1124.00
2019-05-29T02:36:04.911Z,1160.00
2019-05-29T02:37:04.890Z,1108.00
2019-05-29T02:38:05.196Z,1216.00
2019-05-29T02:39:04.858Z,1340.00
2019-05-29T02:40:04.932Z,1356.00
2019-05-29T02:41:05.139Z,1336.00
2019-05-29T02:42:04.834Z,1380.00
2019-05-29T02:43:04.818Z,1204.00
2019-05-29T02:44:05.571Z,1160.00
2019-05-29T02:45:04.803Z,1120.00
2019-05-29T02:46:05.067Z,1108.00
2019-05-29T02:47:04.779Z,1048.00
2019-05-29T02:48:04.771Z,1004.00
2019-05-29T02:49:05.055Z,1048.00
2019-05-29T02:51:20.019Z,1116.00
2019-05-29T02:52:20.149Z,1140.00
2019-05-29T02:53:20.038Z,1132.00
2019-05-29T02:54:20.316Z,1076.00
2019-05-29T02:55:20.637Z,1128.00
2019-05-29T02:56:20.626Z,1300.00
2019-05-29T02:57:20.714Z,1440.00
2019-05-29T02:58:21.527Z,1416.00
2019-05-29T02:59:21.007Z,1484.00
2019-05-29T03:00:20.924Z,1364.00
2019-05-29T03:01:21.381Z,1184.00
2019-05-29T03:02:21.387Z,1120.00
2019-05-29T03:03:19.607Z,1112.00
2019-05-29T03:04:21.435Z,1104.00
2019-05-29T03:05:19.582Z,1168.00
2019-05-29T03:06:19.570Z,1244.00
2019-05-29T03:07:19.877Z,1156.00
2019-05-29T03:08:19.564Z,1108.00
2019-05-29T03:09:19.544Z,1196.00
2019-05-29T03:10:19.806Z,1324.00
2019-05-29T03:11:19.520Z,1368.00
2019-05-29T03:12:19.520Z,1196.00
2019-05-29T03:13:19.844Z,1260.00
2019-05-29T03:14:19.495Z,1328.00
2019-05-29T03:15:19.474Z,1424.00
2019-05-29T03:16:19.804Z,1300.00
2019-05-29T03:17:19.472Z,1220.00
2019-05-29T03:18:19.448Z,1332.00
2019-05-29T03:19:19.767Z,1328.00
2019-05-29T03:20:19.429Z,1308.00
2019-05-29T03:21:32.505Z,1264.00
2019-05-29T03:22:19.711Z,1284.00
2019-05-29T03:23:19.830Z,1288.00
2019-05-29T03:24:19.383Z,1336.00
2019-05-29T03:25:19.367Z,1284.00
2019-05-29T03:26:23.726Z,1248.00
2019-05-29T03:27:19.347Z,1568.00
2019-05-29T03:28:19.346Z,1684.00
2019-05-29T03:29:19.623Z,1672.00
2019-05-29T03:30:19.328Z,1380.00
2019-05-29T03:31:19.320Z,1364.00
2019-05-29T03:32:19.610Z,1264.00
2019-05-29T03:33:19.336Z,1224.00
2019-05-29T03:34:19.282Z,1324.00
2019-05-29T03:35:19.562Z,1456.00
2019-05-29T03:36:19.263Z,1560.00
2019-05-29T03:37:19.254Z,1460.00
2019-05-29T03:38:19.567Z,1148.00
2019-05-29T03:39:19.241Z,1036.00
2019-05-29T03:40:19.205Z,1096.00
2019-05-29T03:41:19.531Z,944.00
2019-05-29T03:42:19.291Z,768.00
2019-05-29T03:43:19.181Z,772.00
2019-05-29T03:44:19.180Z,856.00
2019-05-29T03:45:19.163Z,972.00
2019-05-29T03:46:31.721Z,1304.00
2019-05-29T03:47:20.131Z,1428.00
2019-05-29T03:48:19.192Z,1500.00
2019-05-29T03:49:19.140Z,1488.00
2019-05-29T03:50:19.109Z,1464.00
2019-05-29T03:51:19.126Z,1052.00
2019-05-29T03:52:32.712Z,840.00
2019-05-29T03:53:19.075Z,964.00
2019-05-29T03:54:19.406Z,1136.00
2019-05-29T03:55:19.388Z,1228.00
2019-05-29T03:56:19.044Z,1260.00
2019-05-29T03:57:19.104Z,1332.00
2019-05-29T03:58:19.343Z,1384.00
2019-05-29T03:59:19.004Z,1292.00
2019-05-29T04:00:18.999Z,1200.00
2019-05-29T04:01:19.344Z,1076.00
2019-05-29T04:02:18.976Z,1080.00
2019-05-29T04:03:18.973Z,1020.00
2019-05-29T04:04:19.282Z,1444.00
2019-05-29T04:05:18.949Z,1496.00
2019-05-29T04:06:18.927Z,1364.00
2019-05-29T04:07:19.165Z,1472.00
2019-05-29T04:08:18.908Z,1904.00
2019-05-29T04:09:18.899Z,2276.00
2019-05-29T04:10:19.243Z,2128.00
2019-05-29T04:11:18.882Z,1948.00
2019-05-29T04:12:19.354Z,1884.00
2019-05-29T04:13:18.852Z,1952.00
2019-05-29T04:14:18.848Z,2112.00
2019-05-29T04:15:19.145Z,2120.00
2019-05-29T04:16:18.823Z,2244.00
2019-05-29T04:17:18.810Z,2204.00
2019-05-29T04:18:19.822Z,2328.00
2019-05-29T04:19:18.792Z,2360.00
2019-05-29T04:20:18.778Z,2016.00
2019-05-29T04:21:19.051Z,1956.00
2019-05-29T04:22:18.777Z,1908.00
2019-05-29T04:23:32.114Z,1928.00
2019-05-29T04:24:19.018Z,2084.00
2019-05-29T04:25:18.733Z,2144.00
2019-05-29T04:26:18.850Z,2324.00
2019-05-29T04:27:18.709Z,2100.00
2019-05-29T04:28:18.885Z,2128.00
2019-05-29T04:29:18.705Z,2068.00
2019-05-29T04:30:18.683Z,1876.00
2019-05-29T04:31:18.666Z,1860.00
2019-05-29T04:32:18.656Z,1840.00
2019-05-29T04:33:18.965Z,1968.00
2019-05-29T04:34:18.646Z,1900.00
2019-05-29T04:35:18.620Z,1752.00
2019-05-29T04:36:18.935Z,1840.00
2019-05-29T04:37:18.600Z,1744.00
2019-05-29T04:38:18.589Z,1524.00
2019-05-29T04:39:18.944Z,1524.00
2019-05-29T04:40:18.574Z,1692.00
2019-05-29T04:41:18.553Z,1636.00
2019-05-29T04:42:18.916Z,1512.00
2019-05-29T04:43:18.538Z,1572.00
2019-05-29T04:44:18.571Z,1712.00
2019-05-29T04:45:18.827Z,1708.00
2019-05-29T04:46:18.504Z,1780.00
2019-05-29T04:47:18.490Z,1768.00
2019-05-29T04:48:18.824Z,1872.00
2019-05-29T04:49:20.356Z,1820.00
2019-05-29T04:50:18.468Z,1872.00
2019-05-29T04:51:18.743Z,1536.00
2019-05-29T04:52:18.436Z,1532.00
2019-05-29T04:53:18.428Z,1432.00
2019-05-29T04:54:31.214Z,1668.00
2019-05-29T04:55:18.718Z,1932.00
2019-05-29T04:56:18.401Z,2064.00
2019-05-29T04:57:18.480Z,2024.00
2019-05-29T04:58:18.378Z,1832.00
2019-05-29T04:59:18.365Z,1608.00
2019-05-29T05:00:18.669Z,1480.00
2019-05-29T05:01:18.345Z,1468.00
2019-05-29T05:02:18.337Z,1548.00
2019-05-29T05:03:18.660Z,1568.00
2019-05-29T05:04:18.312Z,1536.00
2019-05-29T05:05:19.600Z,1628.00
2019-05-29T05:06:18.691Z,1720.00
2019-05-29T05:07:18.285Z,1824.00
2019-05-29T05:08:18.265Z,1820.00
2019-05-29T05:09:18.257Z,1692.00
2019-05-29T05:10:18.583Z,1704.00
2019-05-29T05:12:18.223Z,2000.00
2019-05-29T05:13:18.525Z,2272.00
2019-05-29T05:14:18.206Z,2132.00
2019-05-29T05:15:18.217Z,2260.00
2019-05-29T05:16:18.468Z,2248.00
2019-05-29T05:17:26.129Z,2328.00
2019-05-29T05:18:19.158Z,2548.00
2019-05-29T05:19:18.504Z,2496.00
2019-05-29T05:20:18.145Z,2852.00
2019-05-29T05:21:18.138Z,2852.00
2019-05-29T05:22:18.413Z,2332.00
2019-05-29T05:23:18.130Z,2632.00
2019-05-29T05:24:18.099Z,2672.00
2019-05-29T05:25:32.071Z,2712.00
2019-05-29T05:27:18.065Z,2656.00
2019-05-29T05:28:18.381Z,2708.00
2019-05-29T05:29:18.046Z,2808.00
2019-05-29T05:30:18.028Z,2756.00
2019-05-29T05:31:18.320Z,2628.00
2019-05-29T05:32:18.036Z,2476.00
2019-05-29T05:33:17.997Z,2500.00
2019-05-29T05:34:18.318Z,2432.00
2019-05-29T05:35:17.983Z,2400.00
2019-05-29T05:36:17.968Z,2596.00
2019-05-29T05:37:18.289Z,2716.00
2019-05-29T05:38:17.957Z,2840.00
2019-05-29T05:39:17.939Z,3112.00
2019-05-29T05:40:18.226Z,2952.00
2019-05-29T05:41:17.919Z,2692.00
2019-05-29T05:42:17.915Z,2568.00
2019-05-29T05:43:23.994Z,2556.00
2019-05-29T05:44:17.887Z,2692.00
2019-05-29T05:45:17.869Z,2924.00
2019-05-29T05:46:18.144Z,2812.00
2019-05-29T05:47:17.907Z,2748.00
2019-05-29T05:48:18.004Z,2592.00
2019-05-29T05:49:18.130Z,2632.00
2019-05-29T05:50:17.819Z,2804.00
2019-05-29T05:51:17.805Z,3156.00
2019-05-29T05:52:18.151Z,3192.00
2019-05-29T05:53:17.789Z,2728.00
2019-05-29T05:54:17.772Z,2476.00
2019-05-29T05:55:18.031Z,2616.00
2019-05-29T05:56:29.583Z,2800.00
2019-05-29T05:57:18.033Z,3048.00
2019-05-29T05:58:17.732Z,2896.00
2019-05-29T05:59:17.741Z,2800.00
2019-05-29T06:00:17.713Z,2568.00
2019-05-29T06:01:17.699Z,2432.00
2019-05-29T06:02:18.126Z,2292.00
2019-05-29T06:03:17.682Z,2216.00
2019-05-29T06:04:17.661Z,2356.00
2019-05-29T06:05:17.929Z,2436.00
2019-05-29T06:06:17.650Z,2584.00
2019-05-29T06:07:17.639Z,2704.00
2019-05-29T06:08:18.045Z,2648.00
2019-05-29T06:09:17.618Z,2528.00
2019-05-29T06:10:17.601Z,2400.00
2019-05-29T06:11:17.909Z,2324.00
2019-05-29T06:12:17.579Z,2264.00
2019-05-29T06:13:17.578Z,2556.00
2019-05-29T06:14:17.852Z,2756.00
2019-05-29T06:15:17.552Z,2696.00
2019-05-29T06:16:17.543Z,3592.00
2019-05-29T06:17:17.855Z,3316.00
2019-05-29T06:18:21.433Z,2652.00
2019-05-29T06:19:17.505Z,2716.00
2019-05-29T06:20:17.781Z,2772.00
2019-05-29T06:21:17.501Z,2540.00
2019-05-29T06:22:17.474Z,2196.00
2019-05-29T06:23:17.766Z,2672.00
2019-05-29T06:24:17.466Z,3032.00
2019-05-29T06:25:17.549Z,3168.00
2019-05-29T06:26:17.784Z,3720.00
2019-05-29T06:27:30.315Z,4296.00
2019-05-29T06:28:17.761Z,3308.00
2019-05-29T06:29:17.407Z,2300.00
2019-05-29T06:30:17.448Z,2084.00
2019-05-29T06:31:17.379Z,2348.00
2019-05-29T06:32:17.372Z,2772.00
2019-05-29T06:33:17.630Z,3400.00
2019-05-29T06:34:17.359Z,3864.00
2019-05-29T06:35:17.335Z,2988.00
2019-05-29T06:36:17.663Z,3036.00
2019-05-29T06:37:17.318Z,2992.00
2019-05-29T06:38:17.300Z,2916.00
2019-05-29T06:39:17.588Z,2912.00
2019-05-29T06:40:17.316Z,3184.00
2019-05-29T06:41:17.277Z,3728.00
2019-05-29T06:42:17.609Z,3644.00
2019-05-29T06:43:17.250Z,3256.00
2019-05-29T06:44:17.266Z,3172.00
2019-05-29T06:45:17.244Z,3372.00
2019-05-29T06:46:17.215Z,3156.00
2019-05-29T06:47:17.525Z,2772.00
2019-05-29T06:48:17.206Z,2236.00
2019-05-29T06:49:17.186Z,2264.00
2019-05-29T06:50:17.459Z,2856.00
2019-05-29T06:51:17.181Z,2940.00
2019-05-29T06:52:17.189Z,2756.00
2019-05-29T06:53:17.438Z,2688.00
2019-05-29T06:54:17.131Z,3712.00
2019-05-29T06:55:17.144Z,3312.00
2019-05-29T06:56:17.677Z,4180.00
2019-05-29T06:57:17.101Z,4260.00
2019-05-29T06:58:29.363Z,4828.00
2019-05-29T06:59:17.077Z,5680.00
2019-05-29T07:00:34.110Z,5308.00
2019-05-29T07:01:17.373Z,5372.00
2019-05-29T07:02:17.046Z,5072.00
2019-05-29T07:03:17.037Z,5052.00
2019-05-29T07:04:17.351Z,4932.00
2019-05-29T07:05:17.009Z,4844.00
2019-05-29T07:06:17.058Z,4888.00
2019-05-29T07:07:17.272Z,5728.00
2019-05-29T07:08:24.220Z,5464.00
2019-05-29T07:09:16.966Z,5836.00
2019-05-29T07:10:17.238Z,6704.00
2019-05-29T07:11:16.949Z,7124.00
2019-05-29T07:12:16.945Z,7296.00
2019-05-29T07:13:17.336Z,7012.00
2019-05-29T07:14:16.915Z,5912.00
2019-05-29T07:15:16.915Z,5496.00
2019-05-29T07:16:16.904Z,5664.00
2019-05-29T07:17:16.878Z,4964.00
2019-05-29T07:18:16.873Z,4524.00
2019-05-29T07:19:34.159Z,4188.00
2019-05-29T07:20:17.848Z,4208.00
2019-05-29T07:21:16.885Z,4640.00
2019-05-29T07:22:16.832Z,5116.00
2019-05-29T07:23:16.817Z,5356.00
2019-05-29T07:24:16.806Z,5588.00
2019-05-29T07:25:17.089Z,6256.00
2019-05-29T07:26:16.798Z,6624.00
2019-05-29T07:27:16.815Z,6176.00
2019-05-29T07:28:17.094Z,6060.00
2019-05-29T07:30:32.207Z,6512.00
2019-05-29T07:31:32.157Z,6600.00
2019-05-29T07:32:31.890Z,6376.00
2019-05-29T07:33:31.859Z,6708.00
2019-05-29T07:34:47.451Z,7364.00
2019-05-29T07:35:31.842Z,7548.00
2019-05-29T07:36:31.832Z,7904.00
2019-05-29T07:37:32.176Z,7428.00
2019-05-29T07:38:31.813Z,7132.00
2019-05-29T07:39:31.795Z,7280.00
2019-05-29T07:40:35.754Z,7680.00
2019-05-29T07:41:31.776Z,8148.00
2019-05-29T07:42:31.758Z,9284.00
2019-05-29T07:43:32.051Z,8560.00
2019-05-29T07:44:31.750Z,7840.00
2019-05-29T07:45:31.739Z,8128.00
2019-05-29T07:47:31.712Z,8464.00
2019-05-29T07:48:31.713Z,8744.00
2019-05-29T07:49:38.918Z,10708.00
2019-05-29T07:50:31.677Z,11160.00
2019-05-29T07:51:31.671Z,9412.00
2019-05-29T07:52:31.982Z,9580.00
2019-05-29T07:53:33.690Z,10884.00
2019-05-29T07:54:31.633Z,10144.00
2019-05-29T07:55:31.893Z,10224.00
2019-05-29T07:56:31.613Z,11088.00
2019-05-29T07:57:31.603Z,11560.00
2019-05-29T07:58:31.874Z,11700.00
2019-05-29T07:59:31.592Z,12604.00
2019-05-29T08:01:31.806Z,11720.00
2019-05-29T08:02:31.547Z,11860.00
2019-05-29T08:03:31.619Z,10592.00
2019-05-29T08:04:31.549Z,8784.00
2019-05-29T08:05:31.517Z,8156.00
2019-05-29T08:06:31.790Z,8920.00
2019-05-29T08:07:31.503Z,8560.00
2019-05-29T08:08:31.493Z,8056.00
2019-05-29T08:09:31.831Z,10208.00
2019-05-29T08:10:31.472Z,9908.00
2019-05-29T08:11:31.448Z,8912.00
2019-05-29T08:12:32.199Z,8276.00
2019-05-29T08:13:31.429Z,10144.00
2019-05-29T08:14:31.721Z,8216.00
2019-05-29T08:15:31.418Z,7016.00
2019-05-29T08:16:31.402Z,5736.00
2019-05-29T08:17:31.749Z,6164.00
2019-05-29T08:18:31.379Z,6684.00
2019-05-29T08:19:31.368Z,6100.00
2019-05-29T08:20:31.704Z,6276.00
2019-05-29T08:21:31.343Z,6140.00
2019-05-29T08:22:34.457Z,6060.00
2019-05-29T08:23:31.318Z,5260.00
2019-05-29T08:24:31.312Z,4992.00
2019-05-29T08:25:31.657Z,5992.00
2019-05-29T08:26:31.352Z,5792.00
2019-05-29T08:27:31.291Z,5016.00
2019-05-29T08:28:31.585Z,4424.00
2019-05-29T08:29:31.261Z,5584.00
2019-05-29T08:30:31.291Z,5500.00
2019-05-29T08:32:31.225Z,4256.00
2019-05-29T08:33:31.484Z,4788.00
2019-05-29T08:34:31.522Z,5084.00
2019-05-29T08:35:31.197Z,4856.00
2019-05-29T08:36:31.221Z,4444.00
2019-05-29T08:37:31.500Z,4304.00
2019-05-29T08:38:31.174Z,3504.00
2019-05-29T08:39:36.523Z,3716.00
2019-05-29T08:40:31.422Z,3544.00
2019-05-29T08:41:31.132Z,3512.00
2019-05-29T08:42:31.124Z,3808.00
2019-05-29T08:43:31.391Z,4428.00
2019-05-29T08:44:31.091Z,4156.00
2019-05-29T08:45:31.076Z,4280.00
2019-05-29T08:46:33.408Z,5052.00
2019-05-29T08:47:31.077Z,6596.00
2019-05-29T08:48:31.050Z,8188.00
2019-05-29T08:49:31.330Z,9512.00
2019-05-29T08:50:31.032Z,8396.00
2019-05-29T08:51:31.029Z,5828.00
2019-05-29T08:52:31.356Z,5316.00
2019-05-29T08:53:31.007Z,6092.00
2019-05-29T08:54:30.987Z,6340.00
2019-05-29T08:55:31.284Z,5100.00
2019-05-29T08:56:30.979Z,4436.00
2019-05-29T08:57:30.961Z,4008.00
2019-05-29T08:58:31.269Z,3600.00
2019-05-29T08:59:30.932Z,3212.00
2019-05-29T09:00:30.918Z,3460.00
2019-05-29T09:01:31.091Z,4076.00
2019-05-29T09:05:45.209Z,4192.00
2019-05-29T10:00:00.264Z,13068.00
2019-05-29T10:05:06.022Z,11016.00
2019-05-29T10:31:03.130Z,7532.00
2019-05-29T10:36:11.203Z,6376.00
2019-05-29T10:53:59.247Z,4912.00
2019-05-29T11:01:58.056Z,9356.00
2019-05-29T11:07:10.770Z,12072.00
2019-05-29T11:23:58.197Z,11564.00
2019-05-29T11:25:58.216Z,11160.00
2019-05-29T11:26:58.982Z,10864.00
2019-05-29T11:27:58.662Z,11448.00
2019-05-29T11:28:58.798Z,11404.00
2019-05-29T11:29:59.133Z,11216.00
2019-05-29T11:30:59.318Z,11956.00
2019-05-29T11:31:58.897Z,12032.00
2019-05-29T11:33:01.012Z,11564.00
2019-05-29T11:33:59.093Z,10584.00
2019-05-29T11:34:58.028Z,9316.00
2019-05-29T11:36:09.403Z,8260.00
2019-05-29T11:36:58.356Z,8332.00
2019-05-29T11:38:11.393Z,8632.00
2019-05-29T11:39:02.985Z,7668.00
2019-05-29T11:39:59.006Z,7116.00
2019-05-29T11:42:59.040Z,5480.00
2019-05-29T11:44:59.427Z,5664.00
2019-05-29T11:45:57.899Z,6676.00
2019-05-29T11:46:58.233Z,8864.00
2019-05-29T11:47:59.560Z,11408.00
2019-05-29T11:48:57.545Z,12688.00
2019-05-29T11:50:07.496Z,13548.00
2019-05-29T11:50:58.874Z,12736.00
2019-05-29T11:52:18.678Z,12848.00
2019-05-29T11:52:58.534Z,12356.00
2019-05-29T11:53:57.614Z,11212.00
2019-05-29T11:55:57.825Z,9072.00
2019-05-29T11:56:59.026Z,7856.00
2019-05-29T11:57:57.914Z,6884.00
2019-05-29T11:58:57.449Z,7672.00
2019-05-29T12:00:00.179Z,8340.00
2019-05-29T12:00:57.430Z,6840.00
2019-05-29T12:01:59.301Z,6780.00
2019-05-29T12:02:57.863Z,6620.00
2019-05-29T12:04:21.939Z,6720.00
2019-05-29T12:05:02.680Z,6892.00
2019-05-29T12:05:57.700Z,7492.00
2019-05-29T12:06:57.611Z,7488.00
2019-05-29T12:07:57.599Z,7804.00
2019-05-29T12:09:09.313Z,8212.00
2019-05-29T12:09:57.610Z,8608.00
2019-05-29T12:10:57.447Z,8476.00
2019-05-29T12:12:57.605Z,8024.00
2019-05-29T12:13:58.009Z,7928.00
2019-05-29T12:15:06.209Z,8036.00
2019-05-29T12:15:57.743Z,7632.00
2019-05-29T12:16:58.218Z,6432.00
2019-05-29T12:18:18.889Z,5800.00
2019-05-29T12:18:58.229Z,6428.00
2019-05-29T12:19:59.872Z,7136.00
2019-05-29T12:20:58.490Z,7264.00
2019-05-29T12:21:58.358Z,6908.00
2019-05-29T12:23:18.591Z,6072.00
2019-05-29T12:23:58.201Z,5092.00
2019-05-29T12:24:58.507Z,4268.00
2019-05-29T12:26:58.441Z,3212.00
2019-05-29T12:27:57.430Z,3192.00
2019-05-29T12:29:04.549Z,3104.00
2019-05-29T12:29:58.766Z,3000.00
2019-05-29T12:30:57.100Z,3384.00
2019-05-29T12:31:57.396Z,3980.00
2019-05-29T12:32:57.078Z,4756.00
2019-05-29T12:34:00.077Z,6056.00
2019-05-29T12:34:58.230Z,7708.00
2019-05-29T12:35:57.061Z,8480.00
2019-05-29T12:36:57.387Z,8772.00
2019-05-29T12:37:57.715Z,9564.00
2019-05-29T12:38:57.805Z,10092.00
2019-05-29T12:40:08.419Z,10032.00
2019-05-29T12:40:57.643Z,9368.00
2019-05-29T12:41:57.576Z,8936.00
2019-05-29T12:43:57.507Z,9592.00
2019-05-29T12:44:57.567Z,10276.00
2019-05-29T12:45:57.746Z,11200.00
2019-05-29T12:46:57.721Z,11676.00
2019-05-29T12:47:58.166Z,11836.00
2019-05-29T12:48:57.590Z,11884.00
2019-05-29T12:49:57.670Z,12044.00
2019-05-29T12:50:58.271Z,11788.00
2019-05-29T12:51:57.616Z,12332.00
2019-05-29T12:52:57.682Z,12528.00
2019-05-29T12:53:58.016Z,12984.00
2019-05-29T12:54:58.008Z,12228.00
2019-05-29T12:55:58.337Z,11580.00
2019-05-29T12:57:58.034Z,10468.00
2019-05-29T12:58:58.320Z,10012.00
2019-05-29T12:59:57.909Z,9792.00
2019-05-29T13:00:58.366Z,9676.00
2019-05-29T13:01:58.331Z,9204.00
2019-05-29T13:02:56.753Z,9320.00
2019-05-29T13:03:58.519Z,9232.00
2019-05-29T13:05:56.726Z,8936.00
2019-05-29T13:06:56.713Z,10000.00
2019-05-29T13:07:58.676Z,11012.00
2019-05-29T13:08:56.692Z,10852.00
2019-05-29T13:09:56.844Z,10492.00
2019-05-29T13:11:08.650Z,10260.00
2019-05-29T13:11:58.384Z,10920.00
2019-05-29T13:13:02.459Z,11628.00
2019-05-29T13:14:56.893Z,12696.00
2019-05-29T13:15:56.755Z,12592.00
2019-05-29T13:16:56.757Z,12744.00
2019-05-29T13:18:02.737Z,12524.00
2019-05-29T13:18:56.988Z,12228.00
2019-05-29T13:19:59.548Z,12276.00
2019-05-29T13:20:58.824Z,11960.00
2019-05-29T13:21:57.298Z,11880.00
2019-05-29T13:22:57.699Z,12184.00
2019-05-29T13:23:59.788Z,12248.00
2019-05-29T13:24:57.359Z,12536.00
2019-05-29T13:25:57.304Z,12452.00
2019-05-29T13:26:57.566Z,12500.00
2019-05-29T13:28:57.526Z,12136.00
2019-05-29T13:29:59.882Z,12072.00
2019-05-29T13:30:57.638Z,12724.00
2019-05-29T13:31:58.048Z,12208.00
2019-05-29T13:33:02.204Z,11992.00
2019-05-29T13:33:57.778Z,12348.00
2019-05-29T13:34:57.816Z,11112.00
2019-05-29T13:37:02.806Z,10184.00
2019-05-29T13:37:58.801Z,10904.00
2019-05-29T13:38:56.369Z,11404.00
2019-05-29T13:39:56.359Z,11244.00
2019-05-29T13:40:56.639Z,11988.00
2019-05-29T13:42:11.761Z,11760.00
2019-05-29T13:42:56.609Z,10780.00
2019-05-29T13:43:56.637Z,12044.00
2019-05-29T13:45:56.330Z,12300.00
2019-05-29T13:46:57.714Z,10216.00
2019-05-29T13:47:56.815Z,11704.00
2019-05-29T13:48:56.745Z,11164.00
2019-05-29T13:49:57.001Z,11404.00
2019-05-29T13:50:56.985Z,11364.00
2019-05-29T13:51:57.164Z,11908.00
2019-05-29T13:52:57.135Z,12940.00
2019-05-29T13:54:04.753Z,12304.00
2019-05-29T13:54:57.237Z,11752.00
2019-05-29T13:55:57.619Z,10628.00
2019-05-29T13:56:58.971Z,9956.00
2019-05-29T13:57:57.502Z,9504.00
2019-05-29T13:59:56.141Z,11076.00
2019-05-29T14:00:56.138Z,10372.00
2019-05-29T14:01:56.128Z,10876.00
2019-05-29T14:02:56.123Z,11968.00
2019-05-29T14:03:56.391Z,12172.00
2019-05-29T14:04:56.093Z,11776.00
2019-05-29T14:05:56.077Z,13864.00
2019-05-29T14:07:56.099Z,11832.00
2019-05-29T14:08:56.047Z,11284.00
2019-05-29T14:09:56.323Z,11600.00
2019-05-29T14:10:56.024Z,11784.00
2019-05-29T14:11:56.019Z,11116.00
2019-05-29T14:13:09.344Z,9820.00
2019-05-29T14:13:56.448Z,8568.00
2019-05-29T14:14:55.979Z,8188.00
2019-05-29T14:16:56.062Z,10896.00
2019-05-29T14:17:55.950Z,11296.00
2019-05-29T14:18:56.355Z,11144.00
2019-05-29T14:19:55.932Z,10852.00
2019-05-29T14:20:55.921Z,10508.00
2019-05-29T14:21:56.222Z,10568.00
2019-05-29T14:22:55.900Z,9800.00
2019-05-29T14:23:55.895Z,9780.00
2019-05-29T14:24:56.191Z,7288.00
2019-05-29T14:25:55.868Z,7352.00
2019-05-29T14:26:55.853Z,7400.00
2019-05-29T14:27:55.849Z,7204.00
2019-05-29T14:28:56.175Z,6820.00
2019-05-29T14:30:55.814Z,6036.00
2019-05-29T14:31:56.077Z,5648.00
2019-05-29T14:32:55.797Z,5420.00
2019-05-29T14:33:55.779Z,5188.00
2019-05-29T14:34:56.081Z,5160.00
2019-05-29T14:35:55.783Z,5556.00
2019-05-29T14:36:55.753Z,6320.00
2019-05-29T14:37:56.042Z,6532.00
2019-05-29T14:38:55.732Z,7052.00
2019-05-29T14:39:55.721Z,9232.00
2019-05-29T14:40:55.997Z,9404.00
2019-05-29T14:41:55.702Z,8764.00
2019-05-29T14:42:55.684Z,8004.00
2019-05-29T14:44:07.901Z,7744.00
2019-05-29T14:44:56.065Z,7320.00
2019-05-29T14:45:55.697Z,7076.00
2019-05-29T14:46:55.637Z,5704.00
2019-05-29T14:47:55.968Z,6600.00
2019-05-29T14:48:55.619Z,5256.00
2019-05-29T14:49:55.611Z,7348.00
2019-05-29T14:50:55.881Z,7744.00
2019-05-29T14:51:55.600Z,7828.00
2019-05-29T14:52:55.581Z,7924.00